createdAt,value
2023-03-30T00:04:54.811Z,6.00
2023-03-30T00:09:58.395Z,8.88
2023-03-30T00:15:00.446Z,7.97
2023-03-30T00:20:05.176Z,10.23
2023-03-30T00:25:09.619Z,7.63
2023-03-30T00:30:15.265Z,7.47
2023-03-30T00:35:17.422Z,7.30
2023-03-30T00:40:21.684Z,6.68
2023-03-30T00:45:28.667Z,10.52
2023-03-30T00:50:45.138Z,7.60
2023-03-30T00:55:49.535Z,9.57
2023-03-30T01:00:52.038Z,10.73
2023-03-30T01:05:56.414Z,10.18
2023-03-30T01:11:02.595Z,9.32
2023-03-30T01:16:30.242Z,4.97
2023-03-30T01:21:51.133Z,5.28
2023-03-30T01:27:08.558Z,8.50
2023-03-30T01:32:19.619Z,6.28
2023-03-30T01:42:59.948Z,5.47
2023-03-30T01:48:11.461Z,4.63
2023-03-30T01:53:18.276Z,3.40
2023-03-30T01:58:39.519Z,6.97
2023-03-30T02:03:46.544Z,6.75
2023-03-30T02:08:49.879Z,5.70
2023-03-30T02:13:55.185Z,8.43
2023-03-30T02:18:58.632Z,8.20
2023-03-30T02:24:03.905Z,7.65
2023-03-30T02:29:07.472Z,5.97
2023-03-30T02:34:32.746Z,9.45
2023-03-30T02:40:15.291Z,5.60
2023-03-30T02:45:44.719Z,4.97
2023-03-30T02:50:58.036Z,4.93
2023-03-30T02:56:44.284Z,5.13
2023-03-30T03:01:52.496Z,6.43
2023-03-30T03:06:55.657Z,3.67
2023-03-30T03:11:58.333Z,6.60
2023-03-30T03:17:06.119Z,8.60
2023-03-30T03:22:12.717Z,3.53
2023-03-30T03:27:16.434Z,4.20
2023-03-30T03:32:35.907Z,8.15
2023-03-30T03:37:38.386Z,6.20
2023-03-30T03:42:40.787Z,8.63
2023-03-30T03:47:45.942Z,11.13
2023-03-30T03:52:48.232Z,7.85
2023-03-30T03:57:51.505Z,5.75
2023-03-30T04:02:53.652Z,9.98
2023-03-30T04:07:56.810Z,14.45
2023-03-30T04:12:59.386Z,6.95
2023-03-30T04:18:21.565Z,9.73
2023-03-30T04:23:39.985Z,12.35
2023-03-30T04:28:54.156Z,8.68
2023-03-30T04:34:04.990Z,6.55
2023-03-30T04:39:18.140Z,11.85
2023-03-30T04:44:40.751Z,13.68
2023-03-30T04:50:17.028Z,13.45
2023-03-30T04:55:37.760Z,8.00
2023-03-30T05:01:00.817Z,13.07
2023-03-30T05:06:23.567Z,12.53
2023-03-30T05:11:52.004Z,11.10
2023-03-30T05:17:09.541Z,8.10
2023-03-30T05:27:45.785Z,12.98
2023-03-30T05:33:02.279Z,15.60
2023-03-30T05:38:22.629Z,9.73
2023-03-30T05:43:55.980Z,12.18
2023-03-30T05:49:09.718Z,13.00
2023-03-30T05:54:26.652Z,8.85
2023-03-30T05:59:44.455Z,11.63
2023-03-30T06:04:52.635Z,12.98
2023-03-30T06:09:55.176Z,10.20
2023-03-30T06:15:03.401Z,13.98
2023-03-30T06:20:28.857Z,16.38
2023-03-30T06:25:33.642Z,13.20
2023-03-30T06:30:35.934Z,14.27
2023-03-30T06:35:49.108Z,14.45
2023-03-30T06:40:53.912Z,12.63
2023-03-30T06:45:59.231Z,17.13
2023-03-30T06:51:02.577Z,15.98
2023-03-30T06:56:05.784Z,13.98
2023-03-30T07:01:13.821Z,11.65
2023-03-30T07:06:36.013Z,15.93
2023-03-30T07:11:39.250Z,9.70
2023-03-30T07:16:41.582Z,16.40
2023-03-30T07:21:44.032Z,13.82
2023-03-30T07:26:50.109Z,11.85
2023-03-30T07:31:52.871Z,14.00
2023-03-30T07:36:55.798Z,14.15
2023-03-30T07:42:02.806Z,15.85
2023-03-30T07:47:06.910Z,13.50
2023-03-30T07:52:11.855Z,18.70
2023-03-30T07:57:22.637Z,15.23
2023-03-30T08:02:25.236Z,19.98
2023-03-30T08:07:30.148Z,17.17
2023-03-30T08:12:42.223Z,16.67
2023-03-30T08:17:44.455Z,20.70
2023-03-30T08:22:47.714Z,22.92
2023-03-30T08:27:49.778Z,18.05
2023-03-30T08:32:53.677Z,26.65
2023-03-30T08:37:55.800Z,21.63
2023-03-30T08:43:09.112Z,20.42
2023-03-30T08:48:21.119Z,19.88
2023-03-30T08:53:23.320Z,19.77
2023-03-30T08:58:49.697Z,19.20
2023-03-30T09:04:09.659Z,17.48
2023-03-30T09:09:14.831Z,18.63
2023-03-30T09:14:28.978Z,17.20
2023-03-30T09:20:09.247Z,24.58
2023-03-30T09:25:36.296Z,18.60
2023-03-30T09:30:45.818Z,18.45
2023-03-30T09:36:14.260Z,24.23
2023-03-30T09:41:42.788Z,23.30
2023-03-30T09:46:44.913Z,21.42
2023-03-30T09:52:21.488Z,21.55
2023-03-30T09:57:23.516Z,17.95
2023-03-30T10:02:28.714Z,18.95
2023-03-30T10:07:40.474Z,23.13
2023-03-30T10:12:42.925Z,23.33
2023-03-30T10:17:51.428Z,21.08
2023-03-30T10:23:15.750Z,20.60
2023-03-30T10:28:27.123Z,23.85
2023-03-30T10:33:31.037Z,21.83
2023-03-30T10:38:34.137Z,18.42
2023-03-30T10:43:37.052Z,15.85
2023-03-30T10:48:55.096Z,16.70
2023-03-30T10:54:06.654Z,21.65
2023-03-30T10:59:17.127Z,19.25
2023-03-30T11:04:28.585Z,15.35
2023-03-30T11:09:38.066Z,17.98
2023-03-30T11:14:58.186Z,14.98
2023-03-30T11:20:28.857Z,13.02
2023-03-30T11:25:38.893Z,13.40
2023-03-30T11:30:42.157Z,14.00
2023-03-30T11:35:47.884Z,15.55
2023-03-30T11:40:56.246Z,15.35
2023-03-30T11:46:08.633Z,15.77
2023-03-30T11:51:26.182Z,12.30
2023-03-30T11:56:39.821Z,14.95
2023-03-30T12:02:07.790Z,14.68
2023-03-30T12:07:22.021Z,10.80
2023-03-30T12:12:36.220Z,19.00
2023-03-30T12:17:49.350Z,19.58
2023-03-30T12:23:25.089Z,16.85
2023-03-30T12:29:32.580Z,16.50
2023-03-30T12:34:19.682Z,13.98
2023-03-30T12:39:31.251Z,16.35
2023-03-30T12:45:11.769Z,17.60
2023-03-30T12:50:30.990Z,15.50
2023-03-30T12:56:07.478Z,19.80
2023-03-30T13:01:24.067Z,16.52
2023-03-30T13:06:31.753Z,16.52
2023-03-30T13:11:49.963Z,13.95
2023-03-30T13:16:54.897Z,17.35
2023-03-30T13:22:12.316Z,15.05
2023-03-30T13:27:14.473Z,14.07
2023-03-30T13:32:31.775Z,13.27
2023-03-30T13:38:07.120Z,17.70
2023-03-30T13:43:19.433Z,12.25
2023-03-30T13:48:30.842Z,14.63
2023-03-30T13:53:41.743Z,15.30
2023-03-30T13:59:08.049Z,13.07
2023-03-30T14:04:13.768Z,11.95
2023-03-30T14:09:27.875Z,12.00
2023-03-30T14:14:30.026Z,7.80
2023-03-30T14:19:36.151Z,10.93
2023-03-30T14:24:38.262Z,10.13
2023-03-30T14:29:49.068Z,11.20
2023-03-30T14:34:53.615Z,12.45
2023-03-30T14:39:57.554Z,8.52
2023-03-30T14:45:00.656Z,9.32
2023-03-30T14:50:07.747Z,8.57
2023-03-30T14:55:17.636Z,12.20
2023-03-30T15:00:24.961Z,10.77
2023-03-30T15:05:36.098Z,9.68
2023-03-30T15:10:49.780Z,10.18
2023-03-30T15:15:54.286Z,7.55
2023-03-30T15:20:57.597Z,10.52
2023-03-30T15:26:02.086Z,10.07
2023-03-30T15:31:05.168Z,10.48
2023-03-30T15:36:30.601Z,7.63
2023-03-30T15:42:06.645Z,9.89
2023-03-30T15:47:17.795Z,13.65
2023-03-30T15:52:25.035Z,10.50
2023-03-30T15:57:30.707Z,12.88
2023-03-30T16:02:32.857Z,12.65
2023-03-30T16:07:36.219Z,13.43
2023-03-30T16:12:42.022Z,8.30
2023-03-30T16:17:44.730Z,7.15
2023-03-30T16:22:47.393Z,8.90
2023-03-30T16:27:49.768Z,6.85
2023-03-30T16:32:52.118Z,10.77
2023-03-30T16:37:54.427Z,9.57
2023-03-30T16:42:56.996Z,13.13
2023-03-30T16:47:59.810Z,9.77
2023-03-30T16:53:01.977Z,11.23
2023-03-30T16:58:05.525Z,11.15
2023-03-30T17:03:08.310Z,12.10
2023-03-30T17:08:21.367Z,9.43
2023-03-30T17:13:23.992Z,10.85
2023-03-30T17:18:26.658Z,10.93
2023-03-30T17:23:31.964Z,11.25
2023-03-30T17:28:38.320Z,9.13
2023-03-30T17:33:40.566Z,9.25
2023-03-30T17:38:43.810Z,15.20
2023-03-30T17:43:47.967Z,10.02
2023-03-30T17:48:53.101Z,9.10
2023-03-30T17:53:55.228Z,12.07
2023-03-30T17:58:57.384Z,10.45
2023-03-30T18:03:59.744Z,12.32
2023-03-30T18:09:01.973Z,10.20
2023-03-30T18:14:04.184Z,14.07
2023-03-30T18:19:09.735Z,13.35
2023-03-30T18:24:11.717Z,15.60
2023-03-30T18:29:20.319Z,11.13
2023-03-30T18:34:22.738Z,12.55
2023-03-30T18:39:24.723Z,18.08
2023-03-30T18:44:26.814Z,13.00
2023-03-30T18:49:28.883Z,15.05
2023-03-30T18:54:32.103Z,14.63
2023-03-30T18:59:34.212Z,12.57
2023-03-30T19:04:36.329Z,20.25
2023-03-30T19:09:42.960Z,14.95
2023-03-30T19:14:45.973Z,17.25
2023-03-30T19:19:48.032Z,12.20
2023-03-30T19:24:50.579Z,16.27
2023-03-30T19:29:53.205Z,18.40
2023-03-30T19:34:56.152Z,17.85
2023-03-30T19:39:58.337Z,22.45
2023-03-30T19:45:01.610Z,23.60
2023-03-30T19:50:08.848Z,21.00
2023-03-30T19:55:10.885Z,15.77
2023-03-30T20:00:18.138Z,18.80
2023-03-30T20:05:22.773Z,20.10
2023-03-30T20:10:25.942Z,16.40
2023-03-30T20:15:28.194Z,14.77
2023-03-30T20:20:34.583Z,18.33
2023-03-30T20:25:36.672Z,20.75
2023-03-30T20:30:38.802Z,18.15
2023-03-30T20:35:40.969Z,21.23
2023-03-30T20:40:48.329Z,20.30
2023-03-30T20:45:55.869Z,19.95
2023-03-30T20:50:58.085Z,16.15
2023-03-30T20:56:01.697Z,17.45
2023-03-30T21:01:13.755Z,17.17
2023-03-30T21:06:19.546Z,12.57
2023-03-30T21:11:23.364Z,14.63
2023-03-30T21:16:25.745Z,13.93
2023-03-30T21:21:27.925Z,14.93
2023-03-30T21:26:29.995Z,13.98
2023-03-30T21:31:32.387Z,14.23
2023-03-30T21:36:35.035Z,14.68
2023-03-30T21:41:37.493Z,15.60
2023-03-30T21:46:39.738Z,15.07
2023-03-30T21:51:42.042Z,13.48
2023-03-30T21:56:44.376Z,12.60
2023-03-30T22:01:46.598Z,11.13
2023-03-30T22:06:48.784Z,13.70
2023-03-30T22:11:53.004Z,14.10
2023-03-30T22:16:55.340Z,12.95
2023-03-30T22:21:57.339Z,11.02
2023-03-30T22:26:59.604Z,13.68
2023-03-30T22:32:01.851Z,13.05
2023-03-30T22:37:04.121Z,10.50
2023-03-30T22:42:06.923Z,10.80
2023-03-30T22:47:09.406Z,15.23
2023-03-30T22:52:11.447Z,14.38
2023-03-30T22:57:14.241Z,13.45
2023-03-30T23:02:16.565Z,13.30
2023-03-30T23:07:19.121Z,13.70
2023-03-30T23:12:21.383Z,13.20
2023-03-30T23:17:24.422Z,15.30
2023-03-30T23:22:27.012Z,10.77
2023-03-30T23:27:29.064Z,16.13
2023-03-30T23:32:31.319Z,11.73
2023-03-30T23:37:34.002Z,13.43
2023-03-30T23:42:36.099Z,11.73
2023-03-30T23:47:38.444Z,9.98
2023-03-30T23:52:40.592Z,14.55
2023-03-30T23:57:42.674Z,22.25
